»·PEaware :: N104HP KPHX-KLAX

N104HP :: KPHX-KLAX

FLIGHT INFORMATION

Flight Status: Arrived
Operator: Privately registered:
United States
More flights under this callsign
Pilot: Hassan P. (16390)
Aircraft: BOMBARDIER BD-100 CHALLENGER 300
(CL30)
More flights by this aircraft type
Origin: KPHX Phoenix Sky Harbor Intl
United States
Destination: KLAX Los Angeles Intl
United States
More flights between these airports :: More routes between these airports
Route: IZZZO6 MESSI ESTWD HLYWD1
File this flight plan on PilotEdge
Remarks:
Altitude:
(Current/Filed)
26,000ft
Speed:
(Current/Filed)
460kts
Departed: 25-Apr-18 08:20 AM
Arrived: 25-Apr-18 09:22 AM
Distance/Time
Traveled:
321nm/1:01
Distance/Time
To Go:
Arrived

Flight Plot

Page will automatically refresh every two minutes.

Flight plan parsing failed; only flown route is shown


Map Options




Map Legend


Flown Route
Filed Route
Departure Airport
Arrival Airport
Navaid (VOR, NDB)
Fix

Horizontal Profiles

Position Reports

Time Latitude Longitude Heading Altitude Ground
Speed
25-Apr-18 08:04 33.433675 -112.019097 179 1118ft 0kts
25-Apr-18 08:05 33.433675 -112.019097 179 1118ft 0kts
25-Apr-18 08:06 33.433675 -112.019097 179 1118ft 0kts
25-Apr-18 08:07 33.433675 -112.019097 179 1118ft 0kts
25-Apr-18 08:08 33.433675 -112.019097 179 1118ft 0kts
25-Apr-18 08:09 33.433675 -112.019097 179 1118ft 0kts
25-Apr-18 08:10 33.433675 -112.019097 179 1118ft 0kts
25-Apr-18 08:11 33.433675 -112.019097 179 1118ft 0kts
25-Apr-18 08:12 33.433423 -112.019092 178 1117ft 3kts
25-Apr-18 08:13 33.432892 -112.020723 269 1115ft 7kts
25-Apr-18 08:14 33.432893 -112.023166 269 1115ft 6kts
25-Apr-18 08:15 33.432899 -112.025859 270 1114ft 3kts
25-Apr-18 08:16 33.432697 -112.026883 213 1112ft 0kts
25-Apr-18 08:17 33.432697 -112.026883 213 1112ft 0kts
25-Apr-18 08:18 33.431350 -112.026952 165 1112ft 9kts
25-Apr-18 08:19 33.431492 -111.992411 88 2518ft 190kts
25-Apr-18 08:20 33.433522 -111.920746 86 6048ft 208kts
25-Apr-18 08:21 33.409170 -111.856757 156 8008ft 269kts
25-Apr-18 08:22 33.361103 -111.898078 270 10294ft 250kts
25-Apr-18 08:23 33.368257 -111.988065 277 12459ft 313kts
25-Apr-18 08:24 33.381237 -112.096312 278 14836ft 321kts
25-Apr-18 08:25 33.394618 -112.196587 278 17593ft 303kts
25-Apr-18 08:26 33.408816 -112.300114 279 20416ft 329kts
25-Apr-18 08:27 33.423957 -112.409961 279 23221ft 341kts
25-Apr-18 08:28 33.437914 -112.511498 279 25683ft 344kts
25-Apr-18 08:29 33.449747 -112.634511 272 26033ft 404kts
25-Apr-18 08:30 33.452788 -112.775984 276 26009ft 438kts
25-Apr-18 08:31 33.493596 -112.912272 289 26027ft 439kts
25-Apr-18 08:32 33.539171 -113.045881 289 26025ft 432kts
25-Apr-18 08:33 33.585274 -113.179144 290 26028ft 439kts
25-Apr-18 08:34 33.632281 -113.314943 290 26027ft 443kts
25-Apr-18 08:35 33.676100 -113.441927 290 26027ft 445kts
25-Apr-18 08:36 33.723391 -113.579516 290 26018ft 445kts
25-Apr-18 08:37 33.770225 -113.716356 289 25996ft 444kts
25-Apr-18 08:38 33.816863 -113.853160 289 26019ft 442kts
25-Apr-18 08:39 33.862991 -113.988971 289 26027ft 440kts
25-Apr-18 08:40 33.905640 -114.126511 280 26032ft 436kts
25-Apr-18 08:41 33.931152 -114.268563 279 26011ft 436kts
25-Apr-18 08:42 33.955595 -114.411650 279 26015ft 436kts
25-Apr-18 08:43 33.979592 -114.554481 279 26016ft 436kts
25-Apr-18 08:44 34.003183 -114.696214 278 26014ft 436kts
25-Apr-18 08:45 34.026758 -114.838947 278 26011ft 436kts
25-Apr-18 08:46 34.050264 -114.982367 278 26011ft 436kts
25-Apr-18 08:47 34.073696 -115.126008 278 26011ft 436kts
25-Apr-18 08:48 34.096095 -115.264449 277 26041ft 436kts
25-Apr-18 08:49 34.119025 -115.407239 277 26120ft 434kts
25-Apr-18 08:50 34.141744 -115.549784 277 26151ft 435kts
25-Apr-18 08:51 34.159944 -115.691754 263 26154ft 430kts
25-Apr-18 08:52 34.149332 -115.831769 261 26154ft 431kts
25-Apr-18 08:53 34.135966 -115.975661 260 26153ft 432kts
25-Apr-18 08:54 34.122024 -116.119307 260 26152ft 433kts
25-Apr-18 08:55 34.109014 -116.250859 260 26122ft 433kts
25-Apr-18 08:56 34.094248 -116.392476 260 25278ft 421kts
25-Apr-18 08:57 34.079894 -116.526492 259 24103ft 376kts
25-Apr-18 08:58 34.068218 -116.642785 260 23454ft 373kts
25-Apr-18 08:59 34.056655 -116.766321 260 21330ft 375kts
25-Apr-18 09:00 34.044948 -116.888003 258 18642ft 360kts
25-Apr-18 09:01 34.030204 -117.003367 258 17050ft 334kts
25-Apr-18 09:02 34.016598 -117.116055 259 15146ft 336kts
25-Apr-18 09:03 34.003689 -117.224458 259 14479ft 330kts
25-Apr-18 09:04 33.991515 -117.326605 260 13996ft 319kts
25-Apr-18 09:05 33.979519 -117.428339 260 13324ft 316kts
25-Apr-18 09:06 33.979469 -117.529567 281 11855ft 317kts
25-Apr-18 09:07 33.994441 -117.613236 282 10488ft 318kts
25-Apr-18 09:08 34.005039 -117.704045 262 9867ft 286kts
25-Apr-18 09:09 33.996312 -117.793851 263 8261ft 297kts
25-Apr-18 09:10 33.987953 -117.879542 263 6993ft 241kts
25-Apr-18 09:11 33.981788 -117.942567 263 6333ft 193kts
25-Apr-18 09:12 33.976000 -118.001314 263 4959ft 161kts
25-Apr-18 09:13 33.970720 -118.054735 263 4848ft 185kts
25-Apr-18 09:14 33.965649 -118.105601 263 3577ft 157kts
25-Apr-18 09:15 33.960755 -118.154394 263 3574ft 191kts
25-Apr-18 09:16 33.955784 -118.203704 263 2547ft 175kts
25-Apr-18 09:17 33.951213 -118.248668 263 1796ft 158kts
25-Apr-18 09:18 33.945030 -118.301060 261 1880ft 203kts
25-Apr-18 09:19 33.939558 -118.361599 263 608ft 166kts
25-Apr-18 09:20 33.935738 -118.398577 262 109ft 46kts
25-Apr-18 09:21 33.936257 -118.403991 273 109ft 0kts
25-Apr-18 09:22 33.936086 -118.405955 262 109ft 12kts
25-Apr-18 09:23 33.935623 -118.410441 263 109ft 13kts
25-Apr-18 09:24 33.936723 -118.412725 356 109ft 9kts

Navigation Log

Ident Type
Flight plan parsing failed, navigation log unavailable